createdAt,value
2019-02-24T00:01:50.419Z,100183.72
2019-02-24T00:04:21.100Z,100191.65
2019-02-24T00:06:51.659Z,100187.95
2019-02-24T00:09:22.317Z,100183.17
2019-02-24T00:11:52.668Z,100191.16
2019-02-24T00:14:23.681Z,100194.11
2019-02-24T00:16:54.390Z,100193.89
2019-02-24T00:19:25.478Z,100189.06
2019-02-24T00:21:56.504Z,100183.41
2019-02-24T00:24:26.795Z,100183.04
2019-02-24T00:26:57.402Z,100179.70
2019-02-24T00:29:27.636Z,100186.53
2019-02-24T00:31:57.872Z,100178.07
2019-02-24T00:34:28.530Z,100182.69
2019-02-24T00:36:59.062Z,100180.27
2019-02-24T00:39:30.103Z,100180.36
2019-02-24T00:42:00.373Z,100180.09
2019-02-24T00:44:30.976Z,100188.05
2019-02-24T00:47:02.279Z,100185.88
2019-02-24T00:49:32.599Z,100187.84
2019-02-24T00:52:02.852Z,100187.98
2019-02-24T00:54:33.487Z,100187.01
2019-02-24T00:57:03.777Z,100190.63
2019-02-24T00:59:33.983Z,100183.24
2019-02-24T01:02:04.765Z,100182.84
2019-02-24T01:04:35.703Z,100181.98
2019-02-24T01:07:06.235Z,100178.90
2019-02-24T01:09:36.866Z,100175.02
2019-02-24T01:12:07.171Z,100181.59
2019-02-24T01:14:37.822Z,100182.39
2019-02-24T01:17:09.095Z,100185.61
2019-02-24T01:19:40.107Z,100186.47
2019-02-24T01:22:10.643Z,100189.38
2019-02-24T01:24:41.404Z,100189.38
2019-02-24T01:27:11.665Z,100189.84
2019-02-24T01:29:42.247Z,100191.64
2019-02-24T01:32:13.095Z,100187.27
2019-02-24T01:34:43.732Z,100186.87
2019-02-24T01:37:13.909Z,100180.76
2019-02-24T01:39:44.862Z,100185.56
2019-02-24T01:42:15.360Z,100179.61
2019-02-24T01:44:45.963Z,100184.62
2019-02-24T01:47:16.214Z,100176.50
2019-02-24T01:49:47.388Z,100173.63
2019-02-24T01:52:17.996Z,100167.59
2019-02-24T01:54:48.857Z,100166.33
2019-02-24T01:57:19.869Z,100164.11
2019-02-24T01:59:50.223Z,100169.95
2019-02-24T02:02:21.440Z,100163.44
2019-02-24T02:04:51.767Z,100170.45
2019-02-24T02:07:23.450Z,100160.76
2019-02-24T02:09:54.080Z,100161.67
2019-02-24T02:12:25.153Z,100156.00
2019-02-24T02:14:56.216Z,100154.14
2019-02-24T02:17:26.466Z,100154.27
2019-02-24T02:19:57.252Z,100147.75
2019-02-24T02:22:27.561Z,100148.61
2019-02-24T02:24:58.592Z,100144.26
2019-02-24T02:27:28.920Z,100147.75
2019-02-24T02:29:59.762Z,100153.05
2019-02-24T02:32:30.327Z,100148.34
2019-02-24T02:35:01.230Z,100151.02
2019-02-24T02:37:31.558Z,100160.20
2019-02-24T02:40:01.824Z,100156.68
2019-02-24T02:42:32.812Z,100152.66
2019-02-24T02:45:03.703Z,100150.92
2019-02-24T02:47:34.257Z,100153.97
2019-02-24T02:50:04.604Z,100150.38
2019-02-24T02:52:34.857Z,100148.52
2019-02-24T02:55:05.429Z,100142.80
2019-02-24T02:57:36.371Z,100146.75
2019-02-24T03:00:28.171Z,100147.30
2019-02-24T03:02:58.826Z,100152.06
2019-02-24T03:05:29.278Z,100152.01
2019-02-24T03:08:10.567Z,100155.00
2019-02-24T03:10:40.892Z,100154.84
2019-02-24T03:13:11.211Z,100155.70
2019-02-24T03:15:41.848Z,100155.70
2019-02-24T03:19:36.962Z,100152.68
2019-02-24T03:22:07.312Z,100155.45
2019-02-24T03:24:37.546Z,100154.48
2019-02-24T03:27:08.547Z,100161.67
2019-02-24T03:29:38.803Z,100164.39
2019-02-24T03:32:09.407Z,100160.48
2019-02-24T03:34:40.132Z,100164.47
2019-02-24T03:37:10.658Z,100166.28
2019-02-24T03:39:41.785Z,100161.98
2019-02-24T03:42:12.535Z,100163.42
2019-02-24T03:44:43.715Z,100167.10
2019-02-24T03:47:15.246Z,100175.53
2019-02-24T03:49:46.180Z,100175.19
2019-02-24T03:52:17.082Z,100177.47
2019-02-24T03:54:47.657Z,100179.29
2019-02-24T03:57:18.301Z,100175.86
2019-02-24T03:59:49.020Z,100180.24
2019-02-24T04:02:19.652Z,100171.51
2019-02-24T04:04:49.904Z,100182.53
2019-02-24T04:07:20.818Z,100178.63
2019-02-24T04:09:51.076Z,100186.50
2019-02-24T04:12:21.389Z,100186.55
2019-02-24T04:14:51.617Z,100190.06
2019-02-24T04:17:22.219Z,100194.44
2019-02-24T04:19:53.255Z,100196.59
2019-02-24T04:22:23.889Z,100201.39
2019-02-24T04:24:54.518Z,100213.67
2019-02-24T04:27:25.172Z,100210.15
2019-02-24T04:29:55.530Z,100214.11
2019-02-24T04:32:27.850Z,100219.80
2019-02-24T04:34:58.329Z,100216.78
2019-02-24T04:37:28.619Z,100211.11
2019-02-24T04:39:59.642Z,100227.30
2019-02-24T04:42:31.241Z,100224.71
2019-02-24T04:45:02.163Z,100230.41
2019-02-24T04:47:33.885Z,100236.11
2019-02-24T04:50:04.193Z,100234.37
2019-02-24T04:52:34.749Z,100239.20
2019-02-24T04:55:05.688Z,100249.69
2019-02-24T04:57:36.325Z,100244.91
2019-02-24T05:00:07.286Z,100244.47
2019-02-24T05:02:38.604Z,100244.45
2019-02-24T05:05:08.870Z,100244.45
2019-02-24T05:07:40.925Z,100248.84
2019-02-24T05:10:11.517Z,100245.34
2019-02-24T05:12:42.432Z,100243.17
2019-02-24T05:15:12.713Z,100246.67
2019-02-24T05:17:43.020Z,100251.91
2019-02-24T05:20:13.204Z,100249.69
2019-02-24T05:22:44.094Z,100258.00
2019-02-24T05:25:14.339Z,100251.89
2019-02-24T05:27:47.026Z,100256.69
2019-02-24T05:30:17.229Z,100254.95
2019-02-24T05:32:47.434Z,100256.70
2019-02-24T05:35:18.387Z,100263.70
2019-02-24T05:37:49.390Z,100268.92
2019-02-24T05:40:20.443Z,100274.58
2019-02-24T05:42:51.384Z,100278.52
2019-02-24T05:45:22.011Z,100278.09
2019-02-24T05:47:53.294Z,100277.70
2019-02-24T05:50:23.818Z,100277.67
2019-02-24T05:52:56.778Z,100289.51
2019-02-24T05:55:28.256Z,100290.81
2019-02-24T05:57:58.855Z,100291.26
2019-02-24T06:00:29.590Z,100295.58
2019-02-24T06:03:00.739Z,100292.06
2019-02-24T06:05:31.333Z,100301.24
2019-02-24T06:08:02.207Z,100306.98
2019-02-24T06:10:32.461Z,100301.30
2019-02-24T06:13:03.370Z,100306.13
2019-02-24T06:15:33.961Z,100307.87
2019-02-24T06:18:04.256Z,100314.00
2019-02-24T06:20:35.158Z,100317.94
2019-02-24T06:23:05.657Z,100326.66
2019-02-24T06:25:36.503Z,100333.22
2019-02-24T06:28:07.132Z,100330.14
2019-02-24T06:30:37.436Z,100336.27
2019-02-24T06:33:07.678Z,100336.28
2019-02-24T06:35:38.338Z,100342.39
2019-02-24T06:38:08.625Z,100337.14
2019-02-24T06:40:39.515Z,100353.72
2019-02-24T06:43:10.334Z,100346.28
2019-02-24T06:45:40.965Z,100351.09
2019-02-24T06:48:12.690Z,100366.82
2019-02-24T06:50:55.449Z,100369.88
2019-02-24T06:53:27.706Z,100369.44
2019-02-24T06:55:58.307Z,100376.00
2019-02-24T06:58:33.910Z,100384.74
2019-02-24T07:01:05.344Z,100385.16
2019-02-24T07:03:37.881Z,100387.33
2019-02-24T07:06:08.444Z,100379.03
2019-02-24T07:08:40.980Z,100386.86
2019-02-24T07:11:11.961Z,100392.52
2019-02-24T07:13:43.247Z,100404.30
2019-02-24T07:16:14.477Z,100405.58
2019-02-24T07:18:45.099Z,100407.73
2019-02-24T07:21:16.408Z,100398.08
2019-02-24T07:23:47.276Z,100399.37
2019-02-24T07:26:19.634Z,100407.66
2019-02-24T07:28:49.507Z,100412.42
2019-02-24T07:31:20.413Z,100421.14
2019-02-24T07:33:51.609Z,100417.12
2019-02-24T07:36:22.114Z,100424.96
2019-02-24T07:38:52.719Z,100423.98
2019-02-24T07:41:23.447Z,100433.08
2019-02-24T07:43:55.500Z,100434.34
2019-02-24T07:46:26.848Z,100439.55
2019-02-24T07:48:57.157Z,100434.26
2019-02-24T07:51:27.817Z,100435.91
2019-02-24T07:53:58.436Z,100437.63
2019-02-24T07:56:29.044Z,100444.14
2019-02-24T07:58:59.908Z,100441.94
2019-02-24T08:01:30.640Z,100443.59
2019-02-24T08:04:01.691Z,100445.23
2019-02-24T08:06:32.320Z,100449.09
2019-02-24T08:09:02.637Z,100452.94
2019-02-24T08:11:34.292Z,100455.45
2019-02-24T08:14:04.562Z,100458.38
2019-02-24T08:16:35.154Z,100452.52
2019-02-24T08:19:07.182Z,100463.42
2019-02-24T08:21:37.735Z,100458.52
2019-02-24T08:24:08.591Z,100462.34
2019-02-24T08:26:38.794Z,100461.78
2019-02-24T08:29:10.082Z,100458.19
2019-02-24T08:31:40.977Z,100460.41
2019-02-24T08:34:11.352Z,100466.04
2019-02-24T08:36:41.944Z,100465.13
2019-02-24T08:39:12.992Z,100461.53
2019-02-24T08:41:43.622Z,100461.38
2019-02-24T08:44:13.799Z,100459.50
2019-02-24T08:46:44.362Z,100459.44
2019-02-24T08:49:15.415Z,100467.30
2019-02-24T08:51:45.748Z,100459.27
2019-02-24T08:54:16.376Z,100462.54
2019-02-24T08:56:47.020Z,100465.44
2019-02-24T08:59:17.271Z,100468.25
2019-02-24T09:01:48.676Z,100469.05
2019-02-24T09:04:18.856Z,100463.11
2019-02-24T09:06:49.535Z,100472.52
2019-02-24T09:09:19.789Z,100465.56
2019-02-24T09:11:50.083Z,100472.42
2019-02-24T09:14:21.573Z,100477.36
2019-02-24T09:16:52.241Z,100479.23
2019-02-24T09:19:22.531Z,100472.37
2019-02-24T09:21:52.809Z,100474.95
2019-02-24T09:24:23.341Z,100477.34
2019-02-24T09:26:53.659Z,100485.91
2019-02-24T09:29:24.712Z,100479.11
2019-02-24T09:31:55.905Z,100481.13
2019-02-24T09:34:26.379Z,100481.43
2019-02-24T09:36:57.276Z,100480.82
2019-02-24T09:39:27.470Z,100478.21
2019-02-24T09:41:58.025Z,100482.74
2019-02-24T09:44:28.907Z,100484.66
2019-02-24T09:46:59.421Z,100479.08
2019-02-24T09:49:30.855Z,100489.45
2019-02-24T09:52:02.429Z,100484.84
2019-02-24T09:54:34.083Z,100490.58
2019-02-24T09:57:04.607Z,100491.61
2019-02-24T09:59:34.788Z,100490.98
2019-02-24T10:02:05.064Z,100490.11
2019-02-24T10:04:35.680Z,100491.49
2019-02-24T10:07:06.538Z,100493.45
2019-02-24T10:09:36.942Z,100488.28
2019-02-24T10:12:07.494Z,100493.41
2019-02-24T10:14:38.856Z,100488.15
2019-02-24T10:17:09.504Z,100487.20
2019-02-24T10:19:40.833Z,100492.34
2019-02-24T10:22:11.445Z,100484.82
2019-02-24T10:24:42.092Z,100484.70
2019-02-24T10:27:13.004Z,100484.23
2019-02-24T10:29:44.137Z,100475.59
2019-02-24T10:32:14.704Z,100473.88
2019-02-24T10:34:44.970Z,100482.23
2019-02-24T10:37:15.589Z,100468.62
2019-02-24T10:39:46.160Z,100474.89
2019-02-24T10:42:16.442Z,100468.65
2019-02-24T10:44:46.680Z,100480.69
2019-02-24T10:47:17.228Z,100474.37
2019-02-24T10:49:47.428Z,100471.81
2019-02-24T10:52:17.969Z,100463.49
2019-02-24T10:54:48.229Z,100465.97
2019-02-24T10:57:18.777Z,100465.82
2019-02-24T10:59:49.548Z,100466.93
2019-02-24T11:02:19.876Z,100458.89
2019-02-24T11:04:50.075Z,100462.08
2019-02-24T11:07:20.372Z,100454.00
2019-02-24T11:09:50.640Z,100451.70
2019-02-24T11:12:21.073Z,100444.44
2019-02-24T11:14:51.894Z,100440.11
2019-02-24T11:17:22.174Z,100434.91
2019-02-24T11:19:53.069Z,100435.93
2019-02-24T11:22:26.965Z,100434.17
2019-02-24T11:24:57.548Z,100424.58
2019-02-24T11:27:28.401Z,100425.59
2019-02-24T11:29:59.627Z,100428.62
2019-02-24T11:32:30.275Z,100421.10
2019-02-24T11:35:00.536Z,100422.63
2019-02-24T11:37:32.473Z,100422.98
2019-02-24T11:40:04.942Z,100411.00
2019-02-24T11:42:35.690Z,100402.23
2019-02-24T11:45:06.327Z,100410.88
2019-02-24T11:47:36.954Z,100397.86
2019-02-24T11:50:08.585Z,100387.14
2019-02-24T11:52:38.813Z,100388.63
2019-02-24T11:55:09.764Z,100380.09
2019-02-24T11:57:40.497Z,100372.53
2019-02-24T12:00:10.894Z,100362.58
2019-02-24T12:02:41.931Z,100362.25
2019-02-24T12:05:12.638Z,100357.32
2019-02-24T12:07:42.892Z,100349.94
2019-02-24T12:10:13.681Z,100349.72
2019-02-24T12:12:43.956Z,100347.15
2019-02-24T12:15:13.629Z,100342.92
2019-02-24T12:17:43.995Z,100332.28
2019-02-24T12:20:14.396Z,100317.16
2019-02-24T12:22:45.273Z,100319.59
2019-02-24T12:25:15.467Z,100320.50
2019-02-24T12:27:46.053Z,100323.27
2019-02-24T12:30:16.965Z,100311.03
2019-02-24T12:32:47.544Z,100310.14
2019-02-24T12:35:18.431Z,100312.05
2019-02-24T12:37:49.063Z,100305.46
2019-02-24T12:40:19.700Z,100315.36
2019-02-24T12:42:50.329Z,100305.53
2019-02-24T12:45:20.600Z,100305.27
2019-02-24T12:47:50.869Z,100302.80
2019-02-24T12:50:21.238Z,100303.83
2019-02-24T12:52:51.791Z,100295.00
2019-02-24T12:55:22.111Z,100300.39
2019-02-24T12:57:53.104Z,100296.07
2019-02-24T13:00:24.441Z,100290.61
2019-02-24T13:02:57.260Z,100287.30
2019-02-24T13:05:32.988Z,100290.41
2019-02-24T13:08:04.832Z,100291.02
2019-02-24T13:10:35.583Z,100283.16
2019-02-24T13:13:08.249Z,100281.25
2019-02-24T13:15:38.524Z,100281.82
2019-02-24T13:18:09.349Z,100269.55
2019-02-24T13:20:40.463Z,100273.38
2019-02-24T13:23:11.120Z,100275.45
2019-02-24T13:25:41.786Z,100276.78
2019-02-24T13:28:12.459Z,100270.17
2019-02-24T13:30:43.092Z,100273.48
2019-02-24T13:33:13.727Z,100273.23
2019-02-24T13:35:44.118Z,100271.84
2019-02-24T13:38:14.953Z,100273.02
2019-02-24T13:40:45.352Z,100266.16
2019-02-24T13:43:16.764Z,100263.81
2019-02-24T13:45:47.944Z,100267.13
2019-02-24T13:48:19.673Z,100259.83
2019-02-24T13:50:49.923Z,100255.14
2019-02-24T13:53:21.528Z,100248.69
2019-02-24T13:55:52.182Z,100259.41
2019-02-24T13:58:22.804Z,100259.14
2019-02-24T14:00:54.738Z,100255.34
2019-02-24T14:03:25.036Z,100262.05
2019-02-24T14:05:56.287Z,100245.22
2019-02-24T14:08:27.760Z,100241.41
2019-02-24T14:10:58.137Z,100234.29
2019-02-24T14:13:28.373Z,100243.38
2019-02-24T14:15:58.668Z,100236.70
2019-02-24T14:18:29.297Z,100236.97
2019-02-24T14:20:59.928Z,100235.98
2019-02-24T14:23:30.131Z,100241.41
2019-02-24T14:26:00.951Z,100243.81
2019-02-24T14:28:31.517Z,100242.23
2019-02-24T14:31:02.561Z,100243.15
2019-02-24T14:33:32.814Z,100243.77
2019-02-24T14:36:03.719Z,100238.69
2019-02-24T14:38:34.308Z,100239.56
2019-02-24T14:41:04.884Z,100239.91
2019-02-24T14:43:37.763Z,100233.03
2019-02-24T14:46:08.499Z,100242.48
2019-02-24T14:48:39.139Z,100242.24
2019-02-24T14:51:09.493Z,100235.52
2019-02-24T14:53:40.100Z,100232.31
2019-02-24T14:56:10.712Z,100237.20
2019-02-24T14:58:41.357Z,100239.29
2019-02-24T15:01:11.721Z,100239.66
2019-02-24T15:03:44.388Z,100234.84
2019-02-24T15:06:15.704Z,100244.03
2019-02-24T15:08:45.956Z,100247.73
2019-02-24T15:11:16.575Z,100243.48
2019-02-24T15:13:47.202Z,100240.80
2019-02-24T15:16:18.204Z,100247.80
2019-02-24T15:18:49.186Z,100255.84
2019-02-24T15:21:21.024Z,100256.81
2019-02-24T15:23:51.299Z,100254.50
2019-02-24T15:26:21.572Z,100258.16
2019-02-24T15:28:52.540Z,100257.38
2019-02-24T15:31:23.365Z,100256.05
2019-02-24T15:33:54.666Z,100256.76
2019-02-24T15:36:24.920Z,100263.09
2019-02-24T15:38:56.570Z,100253.00
2019-02-24T15:41:29.821Z,100260.36
2019-02-24T15:43:59.499Z,100255.81
2019-02-24T15:46:30.218Z,100260.78
2019-02-24T15:49:02.043Z,100261.12
2019-02-24T15:51:32.600Z,100268.01
2019-02-24T15:54:03.236Z,100266.52
2019-02-24T15:56:34.075Z,100267.70
2019-02-24T15:59:05.120Z,100265.32
2019-02-24T16:01:35.535Z,100267.59
2019-02-24T16:04:06.215Z,100268.11
2019-02-24T16:06:37.571Z,100274.45
2019-02-24T16:09:08.798Z,100268.41
2019-02-24T16:11:39.707Z,100274.16
2019-02-24T16:14:10.006Z,100260.66
2019-02-24T16:16:40.595Z,100260.66
2019-02-24T16:19:10.830Z,100269.03
2019-02-24T16:21:41.149Z,100266.42
2019-02-24T16:24:12.115Z,100269.50
2019-02-24T16:26:42.387Z,100263.63
2019-02-24T16:29:13.039Z,100263.50
2019-02-24T16:31:43.432Z,100267.65
2019-02-24T16:34:13.966Z,100272.75
2019-02-24T16:36:44.324Z,100266.94
2019-02-24T16:39:14.621Z,100266.20
2019-02-24T16:41:46.007Z,100271.42
2019-02-24T16:44:16.569Z,100268.78
2019-02-24T16:46:47.239Z,100271.40
2019-02-24T16:49:18.244Z,100262.66
2019-02-24T16:51:48.834Z,100267.02
2019-02-24T16:54:19.511Z,100265.23
2019-02-24T16:56:51.323Z,100261.72
2019-02-24T16:59:22.080Z,100265.19
2019-02-24T17:01:52.942Z,100262.81
2019-02-24T17:04:23.391Z,100267.77
2019-02-24T17:06:55.042Z,100269.27
2019-02-24T17:09:25.643Z,100272.55
2019-02-24T17:11:56.433Z,100279.17
2019-02-24T17:14:27.264Z,100284.45
2019-02-24T17:17:01.508Z,100291.40
2019-02-24T17:19:30.883Z,100288.56
2019-02-24T17:22:02.354Z,100291.86
2019-02-24T17:24:32.954Z,100293.20
2019-02-24T17:27:04.332Z,100299.55
2019-02-24T17:29:36.695Z,100299.38
2019-02-24T17:32:07.482Z,100299.38
2019-02-24T17:34:38.293Z,100306.28
2019-02-24T17:37:09.035Z,100301.95
2019-02-24T17:39:40.051Z,100304.30
2019-02-24T17:42:10.685Z,100303.11
2019-02-24T17:44:40.978Z,100302.10
2019-02-24T17:47:11.782Z,100306.28
2019-02-24T17:49:42.491Z,100305.48
2019-02-24T17:52:13.491Z,100308.97
2019-02-24T17:54:43.888Z,100309.91
2019-02-24T17:57:15.050Z,100311.11
2019-02-24T17:59:45.819Z,100314.84
2019-02-24T18:02:16.452Z,100312.95
2019-02-24T18:04:47.571Z,100312.95
2019-02-24T18:07:17.954Z,100311.70
2019-02-24T18:09:48.368Z,100312.39
2019-02-24T18:12:18.968Z,100314.14
2019-02-24T18:14:49.702Z,100318.28
2019-02-24T18:17:20.421Z,100318.49
2019-02-24T18:19:50.759Z,100319.78
2019-02-24T18:22:21.508Z,100315.05
2019-02-24T18:24:52.224Z,100314.98
2019-02-24T18:27:23.821Z,100324.10
2019-02-24T18:29:55.333Z,100326.38
2019-02-24T18:32:25.700Z,100331.17
2019-02-24T18:34:56.275Z,100333.67
2019-02-24T18:37:26.546Z,100330.27
2019-02-24T18:39:57.347Z,100336.52
2019-02-24T18:42:27.977Z,100341.01
2019-02-24T18:44:58.380Z,100340.97
2019-02-24T18:47:28.977Z,100342.22
2019-02-24T18:49:59.270Z,100337.66
2019-02-24T18:52:29.671Z,100341.95
2019-02-24T18:55:00.326Z,100339.30
2019-02-24T18:57:32.823Z,100340.55
2019-02-24T19:00:03.828Z,100340.00
2019-02-24T19:02:36.084Z,100346.63
2019-02-24T19:05:07.006Z,100341.06
2019-02-24T19:07:37.730Z,100337.70
2019-02-24T19:10:09.692Z,100339.17
2019-02-24T19:12:40.583Z,100343.97
2019-02-24T19:15:14.143Z,100333.60
2019-02-24T19:17:44.876Z,100331.59
2019-02-24T19:20:16.753Z,100327.92
2019-02-24T19:22:47.476Z,100334.95
2019-02-24T19:25:18.737Z,100329.38
2019-02-24T19:27:49.166Z,100333.53
2019-02-24T19:30:20.290Z,100345.55
2019-02-24T19:32:50.728Z,100344.92
2019-02-24T19:35:21.596Z,100350.58
2019-02-24T19:37:52.229Z,100349.17
2019-02-24T19:40:22.945Z,100348.97
2019-02-24T19:42:53.627Z,100345.21
2019-02-24T19:45:24.327Z,100340.59
2019-02-24T19:47:55.582Z,100334.16
2019-02-24T19:50:26.002Z,100332.30
2019-02-24T19:52:56.353Z,100338.61
2019-02-24T19:55:26.969Z,100339.29
2019-02-24T19:57:57.263Z,100335.09
2019-02-24T20:00:28.104Z,100335.90
2019-02-24T20:02:58.629Z,100334.95
2019-02-24T20:05:29.280Z,100332.73
2019-02-24T20:08:00.054Z,100328.02
2019-02-24T20:10:30.618Z,100327.27
2019-02-24T20:13:00.856Z,100317.88
2019-02-24T20:15:31.163Z,100321.50
2019-02-24T20:18:01.831Z,100321.41
2019-02-24T20:20:32.181Z,100321.98
2019-02-24T20:23:02.942Z,100329.06
2019-02-24T20:25:33.497Z,100339.45
2019-02-24T20:28:04.556Z,100337.86
2019-02-24T20:30:35.460Z,100332.30
2019-02-24T20:33:05.795Z,100336.73
2019-02-24T20:35:36.131Z,100334.59
2019-02-24T20:38:06.738Z,100332.79
2019-02-24T20:40:37.970Z,100329.25
2019-02-24T20:43:08.245Z,100327.02
2019-02-24T20:45:38.580Z,100328.91
2019-02-24T20:48:09.185Z,100321.54
2019-02-24T20:50:39.490Z,100331.92
2019-02-24T20:53:11.950Z,100324.89
2019-02-24T20:55:44.222Z,100329.84
2019-02-24T20:58:16.732Z,100329.00
2019-02-24T21:00:47.994Z,100327.59
2019-02-24T21:03:23.037Z,100329.66
2019-02-24T21:05:53.328Z,100323.51
2019-02-24T21:08:23.781Z,100317.41
2019-02-24T21:10:54.079Z,100314.88
2019-02-24T21:13:24.300Z,100315.95
2019-02-24T21:15:55.000Z,100320.34
2019-02-24T21:18:26.512Z,100325.64
2019-02-24T21:20:57.349Z,100328.59
2019-02-24T21:23:27.533Z,100327.77
2019-02-24T21:25:58.311Z,100326.34
2019-02-24T21:28:29.248Z,100327.50
2019-02-24T21:31:00.439Z,100326.05
2019-02-24T21:33:30.609Z,100328.89
2019-02-24T21:36:00.804Z,100334.18
2019-02-24T21:38:31.903Z,100337.95
2019-02-24T21:41:02.733Z,100339.57
2019-02-24T21:43:33.287Z,100336.75
2019-02-24T21:46:03.859Z,100340.80
2019-02-24T21:48:34.437Z,100338.41
2019-02-24T21:51:04.607Z,100343.97
2019-02-24T21:53:35.904Z,100338.02
2019-02-24T21:56:07.015Z,100339.59
2019-02-24T21:58:37.646Z,100335.78
2019-02-24T22:01:08.165Z,100333.46
2019-02-24T22:03:38.855Z,100339.88
2019-02-24T22:06:09.410Z,100344.47
2019-02-24T22:08:39.609Z,100346.34
2019-02-24T22:11:10.199Z,100339.02
2019-02-24T22:13:40.824Z,100337.39
2019-02-24T22:16:11.047Z,100337.80
2019-02-24T22:18:41.299Z,100335.16
2019-02-24T22:21:11.916Z,100336.56
2019-02-24T22:23:42.154Z,100337.08
2019-02-24T22:26:12.455Z,100337.39
2019-02-24T22:28:43.643Z,100334.84
2019-02-24T22:31:13.923Z,100334.13
2019-02-24T22:33:44.455Z,100334.58
2019-02-24T22:36:15.797Z,100338.16
2019-02-24T22:38:46.735Z,100335.59
2019-02-24T22:41:17.272Z,100335.20
2019-02-24T22:43:48.006Z,100339.23
2019-02-24T22:46:18.351Z,100328.79
2019-02-24T22:48:48.588Z,100325.32
2019-02-24T22:51:19.479Z,100331.52
2019-02-24T22:53:49.754Z,100337.37
2019-02-24T22:56:21.053Z,100332.65
2019-02-24T22:58:51.658Z,100331.86
2019-02-24T23:01:32.620Z,100328.92
2019-02-24T23:04:10.178Z,100336.86
2019-02-24T23:06:40.841Z,100335.94
2019-02-24T23:09:20.057Z,100338.63
2019-02-24T23:11:50.355Z,100336.39
2019-02-24T23:14:22.632Z,100327.67
2019-02-24T23:16:52.963Z,100333.34
2019-02-24T23:19:23.548Z,100335.66
2019-02-24T23:21:54.555Z,100335.25
2019-02-24T23:24:24.782Z,100334.33
2019-02-24T23:26:55.188Z,100343.11
2019-02-24T23:29:25.799Z,100339.77
2019-02-24T23:31:56.120Z,100343.34
2019-02-24T23:34:26.382Z,100345.11
2019-02-24T23:36:56.794Z,100342.47
2019-02-24T23:39:27.425Z,100332.40
2019-02-24T23:41:57.723Z,100335.44
2019-02-24T23:44:27.931Z,100322.27
2019-02-24T23:46:58.545Z,100322.27
2019-02-24T23:49:28.786Z,100327.12
2019-02-24T23:51:59.330Z,100318.93
2019-02-24T23:54:29.610Z,100315.95
2019-02-24T23:56:59.919Z,100315.61
2019-02-24T23:59:30.179Z,100312.58
